Time;durP1;ratioP1;P1;durP2;ratioP2;P2;SDS_P1;SDS_P2;PMS_P1;PMS_P2;Temp;Humidity;BMP_temperature;BMP_pressure;BME280_temperature;BME280_humidity;BME280_pressure;Samples;Min_cycle;Max_cycle;Signal;HPM_P1;HPM_P2
2021/01/10 00:01:13;;;;;;;24.87;15.47;;;;;;;;;;5029881;28;20683;-68
2021/01/10 00:03:38;;;;;;;21.37;14.83;;;;;;;;;;5033619;28;20209;-66
2021/01/10 00:06:03;;;;;;;22.10;14.90;;;;;;;;;;5036174;28;20599;-67
2021/01/10 00:08:28;;;;;;;24.30;14.23;;;;;;;;;;5034013;28;20205;-67
2021/01/10 00:10:53;;;;;;;20.37;14.37;;;;;;;;;;5038942;28;20181;-67
2021/01/10 00:13:18;;;;;;;20.57;15.17;;;;;;;;;;5041671;28;20213;-67
2021/01/10 00:15:44;;;;;;;18.23;13.37;;;;;;;;;;5039924;28;20653;-67
2021/01/10 00:18:09;;;;;;;25.10;14.20;;;;;;;;;;5036656;28;20181;-67
2021/01/10 00:20:35;;;;;;;24.70;14.03;;;;;;;;;;5044832;28;20189;-69
2021/01/10 00:23:00;;;;;;;19.93;13.87;;;;;;;;;;5037681;28;20221;-67
2021/01/10 00:25:25;;;;;;;18.93;14.53;;;;;;;;;;5021244;28;20213;-67
2021/01/10 00:27:51;;;;;;;23.17;13.77;;;;;;;;;;5036769;28;20343;-67
2021/01/10 00:30:17;;;;;;;28.53;15.40;;;;;;;;;;5023312;28;20177;-67
2021/01/10 00:32:46;;;;;;;25.30;17.20;;;;;;;;;;5040062;28;20200;-67
2021/01/10 00:35:12;;;;;;;21.23;14.30;;;;;;;;;;5024219;28;20292;-67
2021/01/10 00:37:37;;;;;;;23.80;14.37;;;;;;;;;;5038150;28;20194;-67
2021/01/10 00:40:02;;;;;;;20.97;13.37;;;;;;;;;;5028598;28;20185;-67
2021/01/10 00:42:28;;;;;;;21.73;14.27;;;;;;;;;;5026394;28;20678;-67
2021/01/10 00:44:53;;;;;;;19.33;13.20;;;;;;;;;;5033615;28;20217;-67
2021/01/10 00:47:18;;;;;;;21.17;13.83;;;;;;;;;;5039163;28;20205;-67
2021/01/10 00:49:44;;;;;;;19.93;13.87;;;;;;;;;;5045200;28;20540;-68
2021/01/10 00:52:10;;;;;;;21.67;14.10;;;;;;;;;;5025170;28;20181;-68
2021/01/10 00:54:35;;;;;;;23.17;14.93;;;;;;;;;;5046875;28;20181;-67
2021/01/10 00:57:00;;;;;;;21.13;13.63;;;;;;;;;;5028692;28;20707;-67
2021/01/10 00:59:25;;;;;;;24.73;14.13;;;;;;;;;;5051771;28;20682;-68
2021/01/10 01:01:51;;;;;;;20.13;13.50;;;;;;;;;;5049472;28;20182;-67
2021/01/10 01:04:16;;;;;;;23.73;13.67;;;;;;;;;;5031658;28;20205;-68
2021/01/10 01:06:41;;;;;;;21.50;14.20;;;;;;;;;;5048332;28;20200;-68
2021/01/10 01:09:07;;;;;;;18.67;13.37;;;;;;;;;;5047010;28;20360;-67
2021/01/10 01:11:33;;;;;;;18.90;13.63;;;;;;;;;;5044158;28;20526;-68
2021/01/10 01:13:59;;;;;;;25.40;15.83;;;;;;;;;;5028174;28;20201;-68
2021/01/10 01:16:24;;;;;;;24.50;14.20;;;;;;;;;;5047106;28;20177;-68
2021/01/10 01:18:49;;;;;;;21.80;13.73;;;;;;;;;;5040591;28;20702;-68
2021/01/10 01:21:18;;;;;;;20.13;14.07;;;;;;;;;;5047468;28;20184;-67
2021/01/10 01:23:43;;;;;;;20.43;15.23;;;;;;;;;;5041637;28;20209;-68
2021/01/10 01:26:15;;;;;;;24.27;14.40;;;;;;;;;;5036533;28;20697;-67
2021/01/10 01:28:43;;;;;;;20.10;14.43;;;;;;;;;;5012567;28;20202;-68
2021/01/10 01:31:08;;;;;;;21.27;14.70;;;;;;;;;;5030075;28;20198;-68
2021/01/10 01:33:33;;;;;;;20.50;14.53;;;;;;;;;;5028521;28;20206;-68
2021/01/10 01:35:58;;;;;;;20.97;13.83;;;;;;;;;;5029505;28;20212;-67
2021/01/10 01:38:24;;;;;;;20.50;13.80;;;;;;;;;;5043001;28;20174;-68
2021/01/10 01:40:57;;;;;;;20.73;14.47;;;;;;;;;;5047384;28;20260;-68
2021/01/10 01:43:22;;;;;;;24.13;14.60;;;;;;;;;;5046486;28;20223;-68
2021/01/10 01:45:47;;;;;;;26.43;16.47;;;;;;;;;;5049897;28;20650;-68
2021/01/10 01:48:12;;;;;;;21.90;15.13;;;;;;;;;;5028838;28;20227;-68
2021/01/10 01:50:37;;;;;;;24.93;15.07;;;;;;;;;;5049407;28;20174;-67
2021/01/10 01:53:03;;;;;;;22.23;16.17;;;;;;;;;;5046054;28;20216;-67
2021/01/10 01:55:28;;;;;;;24.07;15.63;;;;;;;;;;5047400;28;20212;-67
2021/01/10 01:57:53;;;;;;;23.53;15.13;;;;;;;;;;5046114;28;20667;-68
2021/01/10 02:00:18;;;;;;;25.77;16.20;;;;;;;;;;5029138;28;20607;-68
2021/01/10 02:02:44;;;;;;;24.37;16.40;;;;;;;;;;5048355;28;20201;-67
2021/01/10 02:05:11;;;;;;;23.17;16.70;;;;;;;;;;5049323;28;20212;-68
2021/01/10 02:07:41;;;;;;;25.50;16.77;;;;;;;;;;5043917;28;20201;-68
2021/01/10 02:10:06;;;;;;;23.10;16.00;;;;;;;;;;5042698;28;20559;-68
2021/01/10 02:12:34;;;;;;;26.60;18.73;;;;;;;;;;5046341;28;20209;-68
2021/01/10 02:15:00;;;;;;;31.13;20.17;;;;;;;;;;5048869;28;20193;-68
2021/01/10 02:17:27;;;;;;;31.03;19.93;;;;;;;;;;5044503;28;20272;-68
2021/01/10 02:19:55;;;;;;;23.63;16.67;;;;;;;;;;5046556;28;20792;-68
2021/01/10 02:22:23;;;;;;;25.90;16.57;;;;;;;;;;5046891;28;20292;-68
2021/01/10 02:24:48;;;;;;;23.90;15.13;;;;;;;;;;5046072;28;20749;-67
2021/01/10 02:27:14;;;;;;;25.87;17.50;;;;;;;;;;5047281;28;20217;-68
2021/01/10 02:29:39;;;;;;;29.63;16.50;;;;;;;;;;5032232;28;20170;-68
2021/01/10 02:32:05;;;;;;;23.13;16.87;;;;;;;;;;5032467;28;20212;-68
2021/01/10 02:34:33;;;;;;;22.00;16.10;;;;;;;;;;5045953;28;20261;-67
2021/01/10 02:37:05;;;;;;;31.30;16.73;;;;;;;;;;5045833;28;20264;-68
2021/01/10 02:39:46;;;;;;;24.70;16.77;;;;;;;;;;5043001;28;20177;-68
2021/01/10 02:42:17;;;;;;;22.63;16.23;;;;;;;;;;5048347;28;20184;-68
2021/01/10 02:44:49;;;;;;;25.97;17.23;;;;;;;;;;5046798;28;20186;-68
2021/01/10 02:47:14;;;;;;;36.03;19.70;;;;;;;;;;5044081;28;20213;-68
2021/01/10 02:49:39;;;;;;;27.60;18.13;;;;;;;;;;5044196;28;20178;-68
2021/01/10 02:52:04;;;;;;;21.43;16.47;;;;;;;;;;5026468;28;20178;-68
2021/01/10 02:54:30;;;;;;;32.97;18.87;;;;;;;;;;5050133;28;20174;-67
2021/01/10 02:56:55;;;;;;;27.63;17.73;;;;;;;;;;5032413;28;20178;-68
2021/01/10 02:59:23;;;;;;;21.85;16.92;;;;;;;;;;5049254;28;20178;-68
2021/01/10 03:01:49;;;;;;;26.80;17.97;;;;;;;;;;5045756;28;20177;-68
2021/01/10 03:04:15;;;;;;;26.70;16.30;;;;;;;;;;5046703;28;20206;-68
2021/01/10 03:06:41;;;;;;;28.40;17.20;;;;;;;;;;5045703;28;20225;-67
2021/01/10 03:09:06;;;;;;;27.53;18.27;;;;;;;;;;5043251;28;20174;-67
2021/01/10 03:11:32;;;;;;;24.10;16.97;;;;;;;;;;5045098;28;20181;-68
2021/01/10 03:13:58;;;;;;;26.20;18.53;;;;;;;;;;5047232;28;20198;-68
2021/01/10 03:16:23;;;;;;;27.03;18.27;;;;;;;;;;5045649;28;20185;-68
2021/01/10 03:18:48;;;;;;;21.80;16.37;;;;;;;;;;5043081;28;20181;-68
2021/01/10 03:21:13;;;;;;;29.70;17.35;;;;;;;;;;5046439;28;20250;-68
2021/01/10 03:23:39;;;;;;;26.57;18.60;;;;;;;;;;5046796;28;20240;-67
2021/01/10 03:26:04;;;;;;;25.27;17.50;;;;;;;;;;5042118;28;20216;-68
2021/01/10 03:28:29;;;;;;;24.50;16.10;;;;;;;;;;5046637;28;20258;-68
2021/01/10 03:30:54;;;;;;;24.77;17.23;;;;;;;;;;5043459;28;20589;-68
2021/01/10 03:33:19;;;;;;;25.30;17.33;;;;;;;;;;5046383;28;20640;-68
2021/01/10 03:35:44;;;;;;;22.93;16.57;;;;;;;;;;5044344;28;20170;-68
2021/01/10 03:38:10;;;;;;;24.43;17.57;;;;;;;;;;5045894;28;20275;-68
2021/01/10 03:40:35;;;;;;;22.47;16.47;;;;;;;;;;5046127;28;20188;-67
2021/01/10 03:43:00;;;;;;;25.97;16.30;;;;;;;;;;5047967;28;20217;-68
2021/01/10 03:45:25;;;;;;;23.73;16.40;;;;;;;;;;5043425;28;20654;-68
2021/01/10 03:47:51;;;;;;;28.43;17.53;;;;;;;;;;5046338;28;20206;-68
2021/01/10 03:50:16;;;;;;;31.63;17.37;;;;;;;;;;5045519;28;20177;-68
2021/01/10 03:52:41;;;;;;;23.87;16.90;;;;;;;;;;5044027;28;20197;-67
2021/01/10 03:55:07;;;;;;;21.73;15.33;;;;;;;;;;5041460;28;20181;-68
2021/01/10 03:57:35;;;;;;;22.50;14.70;;;;;;;;;;5045275;28;20623;-68
2021/01/10 04:00:00;;;;;;;24.87;14.53;;;;;;;;;;5044583;28;20193;-68
2021/01/10 04:02:25;;;;;;;21.43;15.30;;;;;;;;;;5042691;28;20197;-68
2021/01/10 04:04:51;;;;;;;21.13;15.10;;;;;;;;;;5046957;28;20181;-68
2021/01/10 04:07:16;;;;;;;25.70;15.97;;;;;;;;;;5043788;28;20222;-67
2021/01/10 04:09:41;;;;;;;23.87;16.23;;;;;;;;;;5039743;28;20185;-67
2021/01/10 04:12:06;;;;;;;20.20;15.77;;;;;;;;;;5026999;28;20589;-68
2021/01/10 04:14:31;;;;;;;21.10;15.63;;;;;;;;;;5045318;28;20169;-68
2021/01/10 04:16:57;;;;;;;19.40;15.57;;;;;;;;;;5045488;28;20185;-68
2021/01/10 04:19:22;;;;;;;20.17;15.47;;;;;;;;;;5047794;28;20186;-68
2021/01/10 04:21:47;;;;;;;23.77;15.47;;;;;;;;;;5044717;28;20189;-68
2021/01/10 04:24:12;;;;;;;23.10;13.83;;;;;;;;;;5048741;28;20252;-68
2021/01/10 04:26:38;;;;;;;22.27;15.60;;;;;;;;;;5044415;28;20690;-68
2021/01/10 04:29:04;;;;;;;21.73;16.37;;;;;;;;;;5052145;28;20675;-68
2021/01/10 04:31:30;;;;;;;19.43;14.80;;;;;;;;;;5045877;28;20174;-68
2021/01/10 04:33:55;;;;;;;18.63;14.70;;;;;;;;;;5047745;28;20555;-68
2021/01/10 04:36:20;;;;;;;17.07;13.33;;;;;;;;;;5029359;28;20184;-67
2021/01/10 04:38:45;;;;;;;19.60;13.77;;;;;;;;;;5045006;28;20603;-68
2021/01/10 04:41:11;;;;;;;18.23;13.67;;;;;;;;;;5048343;28;20183;-68
2021/01/10 04:43:36;;;;;;;23.87;14.17;;;;;;;;;;5049416;28;20373;-68
2021/01/10 04:46:01;;;;;;;22.27;13.43;;;;;;;;;;5048445;28;20209;-67
2021/01/10 04:48:27;;;;;;;23.80;14.87;;;;;;;;;;5028789;28;20178;-68
2021/01/10 04:50:52;;;;;;;17.83;13.87;;;;;;;;;;5045794;28;20194;-68
2021/01/10 04:53:19;;;;;;;19.10;14.60;;;;;;;;;;5045355;28;20202;-68
2021/01/10 04:55:45;;;;;;;20.30;14.13;;;;;;;;;;5048710;28;20178;-67
2021/01/10 04:58:10;;;;;;;20.17;14.43;;;;;;;;;;5034572;28;20207;-68
2021/01/10 05:00:35;;;;;;;17.37;14.30;;;;;;;;;;5033577;28;20273;-68
2021/01/10 05:03:05;;;;;;;20.73;14.40;;;;;;;;;;5048746;28;20618;-67
2021/01/10 05:05:33;;;;;;;23.27;14.50;;;;;;;;;;5045078;28;20670;-67
2021/01/10 05:07:59;;;;;;;24.37;15.43;;;;;;;;;;5046530;28;20205;-67
2021/01/10 05:10:24;;;;;;;21.83;14.53;;;;;;;;;;5048277;28;20515;-67
2021/01/10 05:12:49;;;;;;;25.03;14.40;;;;;;;;;;5047000;28;20622;-68
2021/01/10 05:15:14;;;;;;;16.93;14.23;;;;;;;;;;5048773;28;20177;-68
2021/01/10 05:17:39;;;;;;;21.23;14.55;;;;;;;;;;5049484;28;20188;-67
2021/01/10 05:20:08;;;;;;;22.03;14.87;;;;;;;;;;5046208;28;20611;-68
2021/01/10 05:22:33;;;;;;;19.17;12.73;;;;;;;;;;5048286;28;20305;-68
2021/01/10 05:25:12;;;;;;;23.90;14.27;;;;;;;;;;5049039;28;20268;-68
2021/01/10 05:27:37;;;;;;;19.40;13.17;;;;;;;;;;5043082;28;20208;-67
2021/01/10 05:30:03;;;;;;;24.90;14.60;;;;;;;;;;5050145;28;20596;-67
2021/01/10 05:32:28;;;;;;;22.87;14.03;;;;;;;;;;5047677;28;20190;-68
2021/01/10 05:34:59;;;;;;;18.93;13.67;;;;;;;;;;5047675;28;20182;-68
2021/01/10 05:37:24;;;;;;;18.83;14.03;;;;;;;;;;5047812;28;20186;-67
2021/01/10 05:39:49;;;;;;;25.30;14.20;;;;;;;;;;5044378;28;20239;-68
2021/01/10 05:42:15;;;;;;;20.53;14.97;;;;;;;;;;5027262;28;20255;-68
2021/01/10 05:44:40;;;;;;;24.60;14.70;;;;;;;;;;5048535;28;20682;-68
2021/01/10 05:47:06;;;;;;;19.35;14.18;;;;;;;;;;5042775;28;20201;-67
2021/01/10 05:49:32;;;;;;;22.13;14.00;;;;;;;;;;5044071;28;20170;-67
2021/01/10 05:52:06;;;;;;;22.40;13.90;;;;;;;;;;5043899;28;20196;-68
2021/01/10 05:54:38;;;;;;;20.17;13.93;;;;;;;;;;5046597;28;20526;-68
2021/01/10 05:57:04;;;;;;;19.40;14.13;;;;;;;;;;5050652;28;20181;-67
2021/01/10 05:59:31;;;;;;;21.70;13.73;;;;;;;;;;5047430;28;20268;-68
2021/01/10 06:01:56;;;;;;;20.10;13.07;;;;;;;;;;5047214;28;20181;-67
2021/01/10 06:04:23;;;;;;;20.90;12.73;;;;;;;;;;5044712;28;20533;-67
2021/01/10 06:06:48;;;;;;;18.77;13.60;;;;;;;;;;5047903;28;20269;-67
2021/01/10 06:09:13;;;;;;;19.00;13.50;;;;;;;;;;5048554;28;20662;-68
2021/01/10 06:11:38;;;;;;;18.50;13.17;;;;;;;;;;5045844;28;20186;-67
2021/01/10 06:14:04;;;;;;;20.63;13.03;;;;;;;;;;5040768;28;20236;-67
2021/01/10 06:16:34;;;;;;;16.87;12.10;;;;;;;;;;5048056;28;20170;-68
2021/01/10 06:19:06;;;;;;;18.03;13.60;;;;;;;;;;5044856;28;20190;-68
2021/01/10 06:21:33;;;;;;;20.73;11.93;;;;;;;;;;5045537;28;20186;-67
2021/01/10 06:23:59;;;;;;;19.27;12.60;;;;;;;;;;5046959;28;20228;-67
2021/01/10 06:26:25;;;;;;;22.23;12.67;;;;;;;;;;5046020;28;20516;-67
2021/01/10 06:28:54;;;;;;;20.03;13.07;;;;;;;;;;5041330;28;20252;-67
2021/01/10 06:31:29;;;;;;;18.07;12.57;;;;;;;;;;5030172;28;20185;-67
2021/01/10 06:33:55;;;;;;;17.87;12.10;;;;;;;;;;5046097;28;20202;-67
2021/01/10 06:36:21;;;;;;;19.20;11.97;;;;;;;;;;5042383;28;20550;-67
2021/01/10 06:38:50;;;;;;;20.57;11.73;;;;;;;;;;5047754;28;20173;-66
2021/01/10 06:41:15;;;;;;;19.77;11.83;;;;;;;;;;5039377;28;20253;-67
2021/01/10 06:43:42;;;;;;;20.33;11.73;;;;;;;;;;5037351;28;20284;-68
2021/01/10 06:46:07;;;;;;;15.60;12.03;;;;;;;;;;5045052;28;20311;-68
2021/01/10 06:48:32;;;;;;;19.40;11.33;;;;;;;;;;5041759;28;20624;-68
2021/01/10 06:51:00;;;;;;;17.70;12.13;;;;;;;;;;5045691;28;20189;-68
2021/01/10 06:53:25;;;;;;;16.40;11.43;;;;;;;;;;5043952;28;20193;-67
2021/01/10 06:55:50;;;;;;;20.67;12.67;;;;;;;;;;5045752;28;20695;-67
2021/01/10 06:58:16;;;;;;;20.90;11.57;;;;;;;;;;5045910;28;20251;-68
2021/01/10 07:00:50;;;;;;;18.07;12.70;;;;;;;;;;5046594;28;20243;-68
2021/01/10 07:03:15;;;;;;;16.00;11.00;;;;;;;;;;5040688;28;20702;-67
2021/01/10 07:05:56;;;;;;;17.80;10.87;;;;;;;;;;5043384;28;20185;-67
2021/01/10 07:08:41;;;;;;;17.90;11.17;;;;;;;;;;5044472;28;20208;-67
2021/01/10 07:11:25;;;;;;;16.37;10.93;;;;;;;;;;5040733;28;20798;-68
2021/01/10 07:13:51;;;;;;;17.63;10.97;;;;;;;;;;5027332;28;20236;-67
2021/01/10 07:16:16;;;;;;;18.67;11.33;;;;;;;;;;5045500;28;20189;-67
2021/01/10 07:18:51;;;;;;;18.00;11.20;;;;;;;;;;5045671;28;20185;-67
2021/01/10 07:21:29;;;;;;;14.60;11.07;;;;;;;;;;5028914;28;20188;-67
2021/01/10 07:24:13;;;;;;;22.13;11.70;;;;;;;;;;5044618;28;20205;-68
2021/01/10 07:26:43;;;;;;;14.63;10.30;;;;;;;;;;5042526;28;20201;-69
2021/01/10 07:29:27;;;;;;;25.33;11.77;;;;;;;;;;5046846;28;20232;-68
2021/01/10 07:31:54;;;;;;;16.07;11.50;;;;;;;;;;5046404;28;20203;-67
2021/01/10 07:34:19;;;;;;;18.93;11.20;;;;;;;;;;5047568;28;20166;-68
2021/01/10 07:36:45;;;;;;;18.03;11.37;;;;;;;;;;5027864;28;20177;-68
2021/01/10 07:39:10;;;;;;;15.73;11.33;;;;;;;;;;5048393;28;20709;-68
2021/01/10 07:41:36;;;;;;;17.73;11.23;;;;;;;;;;5047266;28;20185;-68
2021/01/10 07:44:01;;;;;;;16.60;11.03;;;;;;;;;;5029918;28;20202;-67
2021/01/10 07:46:45;;;;;;;18.10;12.00;;;;;;;;;;5027250;28;20212;-67
2021/01/10 07:49:10;;;;;;;17.20;12.80;;;;;;;;;;5046177;28;20203;-67
2021/01/10 07:51:44;;;;;;;17.70;12.07;;;;;;;;;;5044076;28;20844;-67
2021/01/10 07:54:09;;;;;;;18.67;11.73;;;;;;;;;;5047995;28;20255;-67
2021/01/10 07:56:34;;;;;;;17.87;13.20;;;;;;;;;;5029566;28;20193;-67
2021/01/10 07:59:16;;;;;;;24.53;13.77;;;;;;;;;;5048734;28;20201;-67
2021/01/10 08:01:47;;;;;;;20.20;12.97;;;;;;;;;;5047715;28;20544;-68
2021/01/10 08:04:25;;;;;;;21.80;13.00;;;;;;;;;;5048448;28;20215;-67
2021/01/10 08:06:57;;;;;;;18.30;11.90;;;;;;;;;;5048791;28;20205;-68
2021/01/10 08:09:29;;;;;;;19.30;11.03;;;;;;;;;;5049225;28;20204;-68
2021/01/10 08:11:54;;;;;;;21.83;11.63;;;;;;;;;;5047984;28;20268;-68
2021/01/10 08:14:19;;;;;;;17.97;12.93;;;;;;;;;;5051343;28;20269;-68
2021/01/10 08:16:44;;;;;;;19.87;11.77;;;;;;;;;;5048738;28;20548;-68
2021/01/10 08:19:09;;;;;;;19.57;10.87;;;;;;;;;;5032611;28;20732;-68
2021/01/10 08:21:35;;;;;;;15.80;11.37;;;;;;;;;;5048243;28;20194;-68
2021/01/10 08:24:00;;;;;;;18.60;10.50;;;;;;;;;;5050552;28;20220;-67
2021/01/10 08:26:26;;;;;;;16.87;10.80;;;;;;;;;;5044632;28;20510;-67
2021/01/10 08:28:52;;;;;;;21.20;11.00;;;;;;;;;;5049436;28;20236;-68
2021/01/10 08:31:26;;;;;;;17.20;10.53;;;;;;;;;;5046852;28;20713;-67
2021/01/10 08:33:58;;;;;;;19.37;10.83;;;;;;;;;;5050412;28;20212;-67
2021/01/10 08:36:23;;;;;;;18.83;10.53;;;;;;;;;;5045191;28;20209;-67
2021/01/10 08:38:53;;;;;;;19.87;11.03;;;;;;;;;;5045362;28;20214;-68
2021/01/10 08:41:28;;;;;;;20.10;11.73;;;;;;;;;;5047710;28;20252;-68
2021/01/10 08:43:55;;;;;;;20.70;12.23;;;;;;;;;;5051105;28;20810;-68
2021/01/10 08:46:21;;;;;;;19.67;11.27;;;;;;;;;;5043044;28;20200;-68
2021/01/10 08:48:46;;;;;;;17.00;11.23;;;;;;;;;;5046355;28;20174;-67
2021/01/10 08:51:26;;;;;;;17.23;9.80;;;;;;;;;;5046605;28;20231;-67
2021/01/10 08:53:51;;;;;;;16.73;10.13;;;;;;;;;;5048055;28;20193;-69
2021/01/10 08:56:16;;;;;;;13.50;9.80;;;;;;;;;;5049257;28;20173;-70
2021/01/10 08:58:42;;;;;;;18.43;10.73;;;;;;;;;;5047194;28;20560;-68
2021/01/10 09:01:08;;;;;;;20.80;10.93;;;;;;;;;;5047265;28;20180;-68
2021/01/10 09:03:33;;;;;;;12.67;9.10;;;;;;;;;;5046541;28;20268;-68
2021/01/10 09:06:00;;;;;;;18.90;10.60;;;;;;;;;;5048867;28;20189;-67
2021/01/10 09:08:35;;;;;;;18.20;9.80;;;;;;;;;;5046438;28;20228;-68
2021/01/10 09:11:04;;;;;;;17.27;10.43;;;;;;;;;;5045065;28;20173;-68
2021/01/10 09:13:31;;;;;;;16.93;9.13;;;;;;;;;;5044871;28;20236;-68
2021/01/10 09:15:58;;;;;;;17.07;9.23;;;;;;;;;;5049763;28;20184;-68
2021/01/10 09:18:24;;;;;;;14.03;10.00;;;;;;;;;;5049193;28;20261;-68
2021/01/10 09:20:52;;;;;;;14.47;9.53;;;;;;;;;;5050221;28;20945;-68
2021/01/10 09:23:18;;;;;;;16.37;9.83;;;;;;;;;;5046353;28;20217;-67
2021/01/10 09:25:43;;;;;;;13.77;8.77;;;;;;;;;;5046102;28;20181;-67
2021/01/10 09:28:16;;;;;;;16.53;9.30;;;;;;;;;;5046802;28;20371;-67
2021/01/10 09:30:45;;;;;;;21.90;9.60;;;;;;;;;;5042075;28;20213;-68
2021/01/10 09:33:11;;;;;;;16.23;10.27;;;;;;;;;;5044538;28;20356;-68
2021/01/10 09:35:41;;;;;;;16.63;11.30;;;;;;;;;;5045029;28;20606;-68
2021/01/10 09:38:07;;;;;;;16.77;11.20;;;;;;;;;;5047665;28;20677;-68
2021/01/10 09:40:32;;;;;;;14.57;10.93;;;;;;;;;;5050118;28;20252;-69
2021/01/10 09:42:57;;;;;;;13.90;9.30;;;;;;;;;;5032112;28;20794;-68
2021/01/10 09:45:32;;;;;;;15.57;9.70;;;;;;;;;;5046372;28;20192;-68
2021/01/10 09:47:57;;;;;;;13.10;8.50;;;;;;;;;;5033666;28;20689;-69
2021/01/10 09:50:22;;;;;;;7.47;6.77;;;;;;;;;;5027198;28;20197;-67
2021/01/10 09:52:54;;;;;;;7.77;6.00;;;;;;;;;;5051002;28;20205;-67
2021/01/10 09:55:19;;;;;;;7.87;5.97;;;;;;;;;;5034416;28;20178;-67
2021/01/10 09:57:45;;;;;;;10.50;6.63;;;;;;;;;;5042012;28;20200;-67
2021/01/10 10:00:15;;;;;;;7.10;4.90;;;;;;;;;;5030564;28;20197;-67
2021/01/10 10:02:40;;;;;;;6.93;5.00;;;;;;;;;;5029201;28;20201;-67
2021/01/10 10:05:13;;;;;;;9.53;4.37;;;;;;;;;;5032735;28;20188;-69
2021/01/10 10:07:40;;;;;;;6.87;4.30;;;;;;;;;;5037784;28;20692;-67
2021/01/10 10:10:26;;;;;;;5.70;3.70;;;;;;;;;;5036638;28;20272;-66
2021/01/10 10:12:52;;;;;;;7.33;3.90;;;;;;;;;;5036263;28;20266;-67
2021/01/10 10:15:17;;;;;;;6.47;4.07;;;;;;;;;;5043558;28;20190;-67
2021/01/10 10:17:42;;;;;;;4.83;3.93;;;;;;;;;;5018325;28;20192;-66
2021/01/10 10:20:11;;;;;;;6.00;3.53;;;;;;;;;;5031596;28;20320;-67
2021/01/10 10:22:36;;;;;;;6.57;3.70;;;;;;;;;;5027461;28;20292;-67
2021/01/10 10:25:03;;;;;;;4.50;4.07;;;;;;;;;;5028814;28;20666;-67
2021/01/10 10:27:30;;;;;;;6.80;3.93;;;;;;;;;;5027401;28;20209;-67
2021/01/10 10:29:55;;;;;;;5.57;3.97;;;;;;;;;;5031495;28;20205;-67
2021/01/10 10:32:21;;;;;;;6.07;3.63;;;;;;;;;;5030049;28;20327;-67
2021/01/10 10:34:46;;;;;;;5.63;3.23;;;;;;;;;;5029778;28;20349;-67
2021/01/10 10:37:13;;;;;;;4.83;3.20;;;;;;;;;;5031935;28;20238;-67
2021/01/10 10:39:38;;;;;;;6.57;3.90;;;;;;;;;;5034101;28;20181;-67
2021/01/10 10:42:04;;;;;;;10.10;4.80;;;;;;;;;;5030894;28;20193;-66
2021/01/10 10:44:30;;;;;;;5.10;4.37;;;;;;;;;;5032719;28;20194;-67
2021/01/10 10:46:55;;;;;;;6.90;4.80;;;;;;;;;;5032449;28;20240;-67
2021/01/10 10:49:20;;;;;;;7.83;4.73;;;;;;;;;;5029304;28;21658;-67
2021/01/10 10:51:45;;;;;;;7.10;4.10;;;;;;;;;;5033460;28;20568;-69
2021/01/10 10:54:13;;;;;;;5.97;3.77;;;;;;;;;;5029137;28;20648;-69
2021/01/10 10:56:42;;;;;;;6.20;4.30;;;;;;;;;;5027390;28;20304;-68
2021/01/10 10:59:08;;;;;;;8.80;3.83;;;;;;;;;;5034904;28;20227;-69
2021/01/10 11:01:43;;;;;;;5.90;4.67;;;;;;;;;;5018630;28;20189;-67
2021/01/10 11:04:09;;;;;;;6.93;4.67;;;;;;;;;;5028857;28;20433;-67
2021/01/10 11:06:34;;;;;;;7.17;4.50;;;;;;;;;;5027723;28;20178;-67
2021/01/10 11:09:00;;;;;;;5.10;4.17;;;;;;;;;;5016804;28;20178;-67
2021/01/10 11:11:39;;;;;;;4.57;3.73;;;;;;;;;;5029301;28;20173;-67
2021/01/10 11:14:29;;;;;;;7.27;4.50;;;;;;;;;;5036451;28;20197;-67
2021/01/10 11:16:54;;;;;;;6.63;4.37;;;;;;;;;;5029093;28;20182;-70
2021/01/10 11:19:20;;;;;;;6.80;4.63;;;;;;;;;;5029973;28;20182;-67
2021/01/10 11:21:46;;;;;;;7.07;4.17;;;;;;;;;;5029993;28;20409;-67
2021/01/10 11:24:12;;;;;;;5.93;4.37;;;;;;;;;;5029011;28;20766;-67
2021/01/10 11:26:39;;;;;;;9.23;4.70;;;;;;;;;;5031207;28;20300;-67
2021/01/10 11:29:04;;;;;;;8.53;5.20;;;;;;;;;;5029822;28;20264;-67
2021/01/10 11:31:31;;;;;;;8.27;5.00;;;;;;;;;;5013965;28;20174;-68
2021/01/10 11:33:56;;;;;;;6.17;4.90;;;;;;;;;;5033833;28;20206;-67
2021/01/10 11:36:21;;;;;;;7.80;5.53;;;;;;;;;;5028646;28;20553;-67
2021/01/10 11:38:50;;;;;;;7.40;5.10;;;;;;;;;;5029071;28;20174;-67
2021/01/10 11:41:16;;;;;;;8.70;4.77;;;;;;;;;;5026566;28;20539;-67
2021/01/10 11:43:42;;;;;;;7.13;5.33;;;;;;;;;;5031631;28;20198;-67
2021/01/10 11:46:07;;;;;;;7.23;4.87;;;;;;;;;;5047845;28;20190;-67
2021/01/10 11:48:33;;;;;;;8.97;5.17;;;;;;;;;;5050298;28;20189;-68
2021/01/10 11:50:58;;;;;;;7.53;5.10;;;;;;;;;;5034612;28;20182;-67
2021/01/10 11:53:23;;;;;;;9.10;5.70;;;;;;;;;;5033337;28;20198;-67
2021/01/10 11:55:49;;;;;;;10.10;5.50;;;;;;;;;;5028295;28;20178;-67
2021/01/10 11:58:14;;;;;;;6.97;5.80;;;;;;;;;;5028308;28;22376;-67
2021/01/10 12:00:39;;;;;;;7.10;4.63;;;;;;;;;;5029109;28;20186;-66
2021/01/10 12:03:04;;;;;;;5.20;4.70;;;;;;;;;;5029268;28;20210;-70
2021/01/10 12:05:30;;;;;;;5.37;4.67;;;;;;;;;;5029656;28;20190;-66
2021/01/10 12:07:55;;;;;;;6.40;4.40;;;;;;;;;;5027374;28;20254;-67
2021/01/10 12:10:20;;;;;;;6.07;4.57;;;;;;;;;;5033176;28;20243;-66
2021/01/10 12:12:45;;;;;;;5.67;4.93;;;;;;;;;;5027285;28;20616;-66
2021/01/10 12:15:10;;;;;;;6.13;4.37;;;;;;;;;;5035954;28;20197;-68
2021/01/10 12:17:36;;;;;;;5.33;4.73;;;;;;;;;;5027201;28;22273;-69
2021/01/10 12:20:02;;;;;;;6.30;5.13;;;;;;;;;;5035404;28;20190;-68
2021/01/10 12:22:27;;;;;;;7.23;5.30;;;;;;;;;;5031853;28;20685;-68
2021/01/10 12:24:52;;;;;;;5.27;4.77;;;;;;;;;;5028660;28;20204;-68
2021/01/10 12:27:18;;;;;;;6.40;4.73;;;;;;;;;;5027991;28;20213;-68
2021/01/10 12:29:43;;;;;;;7.17;4.73;;;;;;;;;;5028675;28;20194;-69
2021/01/10 12:32:08;;;;;;;8.70;5.03;;;;;;;;;;5028821;28;20263;-69
2021/01/10 12:34:33;;;;;;;10.83;5.37;;;;;;;;;;5028031;28;20180;-69
2021/01/10 12:36:58;;;;;;;6.57;5.20;;;;;;;;;;5028324;28;20671;-69
2021/01/10 12:39:24;;;;;;;4.90;4.40;;;;;;;;;;5030686;28;20170;-69
2021/01/10 12:41:49;;;;;;;6.73;4.80;;;;;;;;;;5030906;28;20684;-69
2021/01/10 12:44:15;;;;;;;6.17;5.00;;;;;;;;;;5033577;28;20224;-69
2021/01/10 12:46:40;;;;;;;4.70;4.00;;;;;;;;;;5031000;28;20657;-69
2021/01/10 12:49:05;;;;;;;8.07;5.07;;;;;;;;;;5035463;28;20184;-69
2021/01/10 12:51:37;;;;;;;5.80;4.50;;;;;;;;;;5037546;28;20655;-69
2021/01/10 12:54:03;;;;;;;6.37;4.60;;;;;;;;;;5032002;28;20213;-69
2021/01/10 12:56:28;;;;;;;6.40;4.73;;;;;;;;;;5031509;28;20260;-69
2021/01/10 12:58:53;;;;;;;9.40;5.87;;;;;;;;;;5032008;28;20178;-69
2021/01/10 13:01:18;;;;;;;9.37;4.90;;;;;;;;;;5030288;28;20217;-67
2021/01/10 13:03:43;;;;;;;6.97;4.70;;;;;;;;;;5031263;28;20973;-67
2021/01/10 13:06:10;;;;;;;6.90;4.80;;;;;;;;;;5029901;28;20206;-67
2021/01/10 13:08:35;;;;;;;6.67;4.40;;;;;;;;;;5030561;28;20682;-67
2021/01/10 13:11:00;;;;;;;8.67;4.80;;;;;;;;;;5017372;28;20185;-67
2021/01/10 13:13:27;;;;;;;6.20;5.10;;;;;;;;;;5034157;28;20202;-67
2021/01/10 13:15:52;;;;;;;8.47;4.80;;;;;;;;;;5029725;28;20195;-67
2021/01/10 13:18:17;;;;;;;7.07;4.67;;;;;;;;;;5030859;28;20270;-68
2021/01/10 13:20:42;;;;;;;7.23;5.10;;;;;;;;;;5031858;28;20190;-68
2021/01/10 13:23:07;;;;;;;9.57;4.93;;;;;;;;;;5039306;28;20516;-67
2021/01/10 13:25:32;;;;;;;5.83;4.83;;;;;;;;;;5029983;28;20190;-68
2021/01/10 13:27:58;;;;;;;6.40;4.33;;;;;;;;;;5013649;28;20649;-68
2021/01/10 13:30:23;;;;;;;5.93;4.40;;;;;;;;;;5031180;28;20196;-68
2021/01/10 13:32:48;;;;;;;10.20;4.97;;;;;;;;;;5029922;28;20215;-68
2021/01/10 13:35:13;;;;;;;13.27;8.70;;;;;;;;;;5041401;28;20720;-68
2021/01/10 13:37:40;;;;;;;14.77;8.53;;;;;;;;;;5016521;28;20593;-67
2021/01/10 13:40:05;;;;;;;8.27;6.10;;;;;;;;;;5029395;28;20182;-68
2021/01/10 13:42:31;;;;;;;8.60;5.13;;;;;;;;;;5031009;28;20869;-68
2021/01/10 13:44:56;;;;;;;5.40;4.80;;;;;;;;;;5031393;28;20189;-69
2021/01/10 13:47:21;;;;;;;8.23;5.20;;;;;;;;;;5029643;28;20260;-68
2021/01/10 13:49:46;;;;;;;7.67;5.33;;;;;;;;;;5018119;28;20265;-68
2021/01/10 13:52:12;;;;;;;6.77;5.37;;;;;;;;;;5031900;28;20197;-68
2021/01/10 13:54:37;;;;;;;6.10;4.63;;;;;;;;;;5028628;28;20717;-67
2021/01/10 13:57:02;;;;;;;6.83;5.60;;;;;;;;;;5029150;28;20262;-67
2021/01/10 13:59:27;;;;;;;6.50;4.67;;;;;;;;;;5032019;28;20558;-67
2021/01/10 14:01:53;;;;;;;12.37;6.20;;;;;;;;;;5030809;28;20273;-67
2021/01/10 14:04:18;;;;;;;9.73;6.10;;;;;;;;;;5030671;28;20218;-67
2021/01/10 14:06:44;;;;;;;11.30;5.93;;;;;;;;;;5029936;28;20301;-67
2021/01/10 14:09:09;;;;;;;9.43;6.10;;;;;;;;;;5030234;28;20922;-67
2021/01/10 14:11:34;;;;;;;10.53;6.60;;;;;;;;;;5031315;28;20733;-67
2021/01/10 14:14:00;;;;;;;12.27;6.63;;;;;;;;;;5035739;28;20189;-67
2021/01/10 14:16:27;;;;;;;11.90;5.87;;;;;;;;;;5029215;28;20300;-67
2021/01/10 14:18:54;;;;;;;6.47;5.60;;;;;;;;;;5047853;28;20178;-67
2021/01/10 14:21:26;;;;;;;6.87;5.20;;;;;;;;;;5032385;28;20186;-67
2021/01/10 14:23:51;;;;;;;8.47;5.33;;;;;;;;;;5032787;28;20229;-68